sensor_id;sensor_type;location;lat;lon;timestamp;P1;durP1;ratioP1;P2;durP2;ratioP2
58528;SDS011;44322;52.968;5.816;2022-08-19T00:02:13;12.60;;;8.30;;
58528;SDS011;44322;52.968;5.816;2022-08-19T00:04:39;12.93;;;8.02;;
58528;SDS011;44322;52.968;5.816;2022-08-19T00:07:05;12.77;;;8.27;;
58528;SDS011;44322;52.968;5.816;2022-08-19T00:09:31;10.57;;;7.82;;
58528;SDS011;44322;52.968;5.816;2022-08-19T00:11:58;9.98;;;7.57;;
58528;SDS011;44322;52.968;5.816;2022-08-19T00:14:24;12.73;;;8.23;;
58528;SDS011;44322;52.968;5.816;2022-08-19T00:16:51;10.70;;;8.20;;
58528;SDS011;44322;52.968;5.816;2022-08-19T00:19:19;10.98;;;8.13;;
58528;SDS011;44322;52.968;5.816;2022-08-19T00:21:45;12.20;;;7.93;;
58528;SDS011;44322;52.968;5.816;2022-08-19T00:24:12;10.15;;;7.95;;
58528;SDS011;44322;52.968;5.816;2022-08-19T00:26:39;11.18;;;8.05;;
58528;SDS011;44322;52.968;5.816;2022-08-19T00:29:10;10.23;;;8.45;;
58528;SDS011;44322;52.968;5.816;2022-08-19T00:31:38;12.13;;;8.35;;
58528;SDS011;44322;52.968;5.816;2022-08-19T00:34:05;10.77;;;8.53;;
58528;SDS011;44322;52.968;5.816;2022-08-19T00:36:31;13.93;;;8.50;;
58528;SDS011;44322;52.968;5.816;2022-08-19T00:38:58;11.18;;;8.15;;
58528;SDS011;44322;52.968;5.816;2022-08-19T00:41:25;11.37;;;8.20;;
58528;SDS011;44322;52.968;5.816;2022-08-19T00:46:24;9.15;;;7.88;;
58528;SDS011;44322;52.968;5.816;2022-08-19T00:48:50;12.82;;;8.43;;
58528;SDS011;44322;52.968;5.816;2022-08-19T00:51:16;13.73;;;8.50;;
58528;SDS011;44322;52.968;5.816;2022-08-19T00:53:42;12.15;;;8.60;;
58528;SDS011;44322;52.968;5.816;2022-08-19T00:56:08;11.63;;;9.02;;
58528;SDS011;44322;52.968;5.816;2022-08-19T00:58:35;10.68;;;8.25;;
58528;SDS011;44322;52.968;5.816;2022-08-19T01:01:02;12.43;;;8.93;;
58528;SDS011;44322;52.968;5.816;2022-08-19T01:05:55;13.10;;;8.38;;
58528;SDS011;44322;52.968;5.816;2022-08-19T01:08:21;11.35;;;8.32;;
58528;SDS011;44322;52.968;5.816;2022-08-19T01:10:49;13.20;;;8.90;;
58528;SDS011;44322;52.968;5.816;2022-08-19T01:13:19;10.98;;;8.43;;
58528;SDS011;44322;52.968;5.816;2022-08-19T01:15:51;10.95;;;8.50;;
58528;SDS011;44322;52.968;5.816;2022-08-19T01:18:22;12.77;;;8.65;;
58528;SDS011;44322;52.968;5.816;2022-08-19T01:20:51;14.68;;;8.98;;
58528;SDS011;44322;52.968;5.816;2022-08-19T01:23:19;12.57;;;8.15;;
58528;SDS011;44322;52.968;5.816;2022-08-19T01:25:47;10.93;;;8.57;;
58528;SDS011;44322;52.968;5.816;2022-08-19T01:28:19;11.30;;;8.55;;
58528;SDS011;44322;52.968;5.816;2022-08-19T01:30:47;14.63;;;9.00;;
58528;SDS011;44322;52.968;5.816;2022-08-19T01:33:13;12.73;;;9.10;;
58528;SDS011;44322;52.968;5.816;2022-08-19T01:35:40;11.98;;;8.57;;
58528;SDS011;44322;52.968;5.816;2022-08-19T01:38:08;11.85;;;7.82;;
58528;SDS011;44322;52.968;5.816;2022-08-19T01:40:43;10.00;;;8.13;;
58528;SDS011;44322;52.968;5.816;2022-08-19T01:43:10;12.13;;;8.80;;
58528;SDS011;44322;52.968;5.816;2022-08-19T01:45:36;9.25;;;7.32;;
58528;SDS011;44322;52.968;5.816;2022-08-19T01:48:05;12.02;;;8.55;;
58528;SDS011;44322;52.968;5.816;2022-08-19T01:50:32;10.65;;;8.07;;
58528;SDS011;44322;52.968;5.816;2022-08-19T01:52:59;11.67;;;8.30;;
58528;SDS011;44322;52.968;5.816;2022-08-19T01:55:25;13.85;;;8.35;;
58528;SDS011;44322;52.968;5.816;2022-08-19T01:57:52;12.80;;;8.77;;
58528;SDS011;44322;52.968;5.816;2022-08-19T02:00:23;15.07;;;8.68;;
58528;SDS011;44322;52.968;5.816;2022-08-19T02:02:52;12.30;;;9.38;;
58528;SDS011;44322;52.968;5.816;2022-08-19T02:05:18;14.70;;;9.43;;
58528;SDS011;44322;52.968;5.816;2022-08-19T02:07:46;12.73;;;9.18;;
58528;SDS011;44322;52.968;5.816;2022-08-19T02:10:15;14.98;;;9.40;;
58528;SDS011;44322;52.968;5.816;2022-08-19T02:12:45;12.57;;;8.90;;
58528;SDS011;44322;52.968;5.816;2022-08-19T02:15:11;14.93;;;9.57;;
58528;SDS011;44322;52.968;5.816;2022-08-19T02:17:37;16.13;;;10.25;;
58528;SDS011;44322;52.968;5.816;2022-08-19T02:20:04;15.38;;;10.27;;
58528;SDS011;44322;52.968;5.816;2022-08-19T02:22:32;16.40;;;10.15;;
58528;SDS011;44322;52.968;5.816;2022-08-19T02:24:57;15.10;;;10.45;;
58528;SDS011;44322;52.968;5.816;2022-08-19T02:27:23;14.75;;;9.90;;
58528;SDS011;44322;52.968;5.816;2022-08-19T02:29:50;15.70;;;10.07;;
58528;SDS011;44322;52.968;5.816;2022-08-19T02:32:17;16.35;;;10.73;;
58528;SDS011;44322;52.968;5.816;2022-08-19T02:34:46;14.68;;;9.63;;
58528;SDS011;44322;52.968;5.816;2022-08-19T02:37:12;12.70;;;9.40;;
58528;SDS011;44322;52.968;5.816;2022-08-19T02:39:58;13.75;;;9.95;;
58528;SDS011;44322;52.968;5.816;2022-08-19T02:42:24;16.40;;;11.23;;
58528;SDS011;44322;52.968;5.816;2022-08-19T02:44:50;17.67;;;11.05;;
58528;SDS011;44322;52.968;5.816;2022-08-19T02:47:18;17.00;;;10.27;;
58528;SDS011;44322;52.968;5.816;2022-08-19T02:49:44;14.97;;;9.63;;
58528;SDS011;44322;52.968;5.816;2022-08-19T02:52:11;14.60;;;10.52;;
58528;SDS011;44322;52.968;5.816;2022-08-19T02:54:37;13.55;;;9.88;;
58528;SDS011;44322;52.968;5.816;2022-08-19T02:57:04;15.35;;;10.43;;
58528;SDS011;44322;52.968;5.816;2022-08-19T02:59:31;13.60;;;9.88;;
58528;SDS011;44322;52.968;5.816;2022-08-19T03:01:57;14.60;;;9.68;;
58528;SDS011;44322;52.968;5.816;2022-08-19T03:04:23;18.08;;;10.40;;
58528;SDS011;44322;52.968;5.816;2022-08-19T03:06:49;14.02;;;10.55;;
58528;SDS011;44322;52.968;5.816;2022-08-19T03:09:16;16.48;;;10.60;;
58528;SDS011;44322;52.968;5.816;2022-08-19T03:11:44;15.20;;;11.23;;
58528;SDS011;44322;52.968;5.816;2022-08-19T03:14:11;15.05;;;10.60;;
58528;SDS011;44322;52.968;5.816;2022-08-19T03:16:45;15.17;;;10.40;;
58528;SDS011;44322;52.968;5.816;2022-08-19T03:19:13;16.35;;;11.30;;
58528;SDS011;44322;52.968;5.816;2022-08-19T03:21:42;16.23;;;11.07;;
58528;SDS011;44322;52.968;5.816;2022-08-19T03:24:10;14.02;;;10.18;;
58528;SDS011;44322;52.968;5.816;2022-08-19T03:26:44;16.45;;;10.95;;
58528;SDS011;44322;52.968;5.816;2022-08-19T03:29:15;16.67;;;10.98;;
58528;SDS011;44322;52.968;5.816;2022-08-19T03:31:42;18.52;;;11.25;;
58528;SDS011;44322;52.968;5.816;2022-08-19T03:34:10;16.67;;;10.93;;
58528;SDS011;44322;52.968;5.816;2022-08-19T03:36:38;16.65;;;11.90;;
58528;SDS011;44322;52.968;5.816;2022-08-19T03:39:04;18.90;;;12.82;;
58528;SDS011;44322;52.968;5.816;2022-08-19T03:41:31;18.27;;;13.13;;
58528;SDS011;44322;52.968;5.816;2022-08-19T03:44:02;18.63;;;12.77;;
58528;SDS011;44322;52.968;5.816;2022-08-19T03:46:30;20.40;;;12.32;;
58528;SDS011;44322;52.968;5.816;2022-08-19T03:51:25;18.87;;;13.50;;
58528;SDS011;44322;52.968;5.816;2022-08-19T03:53:58;15.32;;;11.38;;
58528;SDS011;44322;52.968;5.816;2022-08-19T03:56:25;19.33;;;12.40;;
58528;SDS011;44322;52.968;5.816;2022-08-19T04:01:20;18.60;;;13.10;;
58528;SDS011;44322;52.968;5.816;2022-08-19T04:03:47;17.67;;;11.95;;
58528;SDS011;44322;52.968;5.816;2022-08-19T04:06:15;18.77;;;12.10;;
58528;SDS011;44322;52.968;5.816;2022-08-19T04:08:44;17.05;;;12.35;;
58528;SDS011;44322;52.968;5.816;2022-08-19T04:16:05;19.27;;;11.77;;
58528;SDS011;44322;52.968;5.816;2022-08-19T04:18:32;20.60;;;13.38;;
58528;SDS011;44322;52.968;5.816;2022-08-19T04:20:58;17.02;;;12.80;;
58528;SDS011;44322;52.968;5.816;2022-08-19T04:23:25;21.40;;;13.55;;
58528;SDS011;44322;52.968;5.816;2022-08-19T04:25:53;21.27;;;14.18;;
58528;SDS011;44322;52.968;5.816;2022-08-19T04:28:20;20.33;;;13.27;;
58528;SDS011;44322;52.968;5.816;2022-08-19T04:30:47;21.75;;;13.88;;
58528;SDS011;44322;52.968;5.816;2022-08-19T04:33:15;19.77;;;13.35;;
58528;SDS011;44322;52.968;5.816;2022-08-19T04:35:44;20.08;;;12.80;;
58528;SDS011;44322;52.968;5.816;2022-08-19T04:38:13;20.75;;;14.35;;
58528;SDS011;44322;52.968;5.816;2022-08-19T04:40:43;24.90;;;14.65;;
58528;SDS011;44322;52.968;5.816;2022-08-19T04:43:30;22.23;;;13.98;;
58528;SDS011;44322;52.968;5.816;2022-08-19T04:45:56;20.57;;;14.20;;
58528;SDS011;44322;52.968;5.816;2022-08-19T04:48:23;21.10;;;13.73;;
58528;SDS011;44322;52.968;5.816;2022-08-19T04:50:55;21.73;;;13.85;;
58528;SDS011;44322;52.968;5.816;2022-08-19T04:53:26;22.17;;;14.68;;
58528;SDS011;44322;52.968;5.816;2022-08-19T04:55:57;23.85;;;13.93;;
58528;SDS011;44322;52.968;5.816;2022-08-19T04:58:25;19.42;;;13.32;;
58528;SDS011;44322;52.968;5.816;2022-08-19T05:00:52;22.70;;;14.35;;
58528;SDS011;44322;52.968;5.816;2022-08-19T05:03:19;22.00;;;14.00;;
58528;SDS011;44322;52.968;5.816;2022-08-19T05:05:47;23.85;;;14.05;;
58528;SDS011;44322;52.968;5.816;2022-08-19T05:08:17;21.27;;;14.57;;
58528;SDS011;44322;52.968;5.816;2022-08-19T05:10:46;21.50;;;14.15;;
58528;SDS011;44322;52.968;5.816;2022-08-19T05:13:13;24.15;;;14.73;;
58528;SDS011;44322;52.968;5.816;2022-08-19T05:15:39;20.73;;;14.20;;
58528;SDS011;44322;52.968;5.816;2022-08-19T05:18:05;24.58;;;14.95;;
58528;SDS011;44322;52.968;5.816;2022-08-19T05:20:50;24.98;;;14.77;;
58528;SDS011;44322;52.968;5.816;2022-08-19T05:23:35;23.02;;;14.75;;
58528;SDS011;44322;52.968;5.816;2022-08-19T05:26:00;24.05;;;14.90;;
58528;SDS011;44322;52.968;5.816;2022-08-19T05:28:26;24.17;;;14.85;;
58528;SDS011;44322;52.968;5.816;2022-08-19T05:30:52;24.95;;;16.00;;
58528;SDS011;44322;52.968;5.816;2022-08-19T05:33:20;22.83;;;15.23;;
58528;SDS011;44322;52.968;5.816;2022-08-19T05:35:46;25.58;;;15.30;;
58528;SDS011;44322;52.968;5.816;2022-08-19T05:38:15;22.92;;;14.57;;
58528;SDS011;44322;52.968;5.816;2022-08-19T05:40:42;26.52;;;15.10;;
58528;SDS011;44322;52.968;5.816;2022-08-19T05:43:12;24.67;;;15.52;;
58528;SDS011;44322;52.968;5.816;2022-08-19T05:45:41;23.98;;;15.55;;
58528;SDS011;44322;52.968;5.816;2022-08-19T05:48:09;21.42;;;14.82;;
58528;SDS011;44322;52.968;5.816;2022-08-19T05:50:37;25.90;;;15.75;;
58528;SDS011;44322;52.968;5.816;2022-08-19T05:53:04;27.70;;;16.08;;
58528;SDS011;44322;52.968;5.816;2022-08-19T05:55:30;22.42;;;15.48;;
58528;SDS011;44322;52.968;5.816;2022-08-19T05:57:57;27.02;;;16.00;;
58528;SDS011;44322;52.968;5.816;2022-08-19T06:00:23;24.05;;;16.13;;
58528;SDS011;44322;52.968;5.816;2022-08-19T06:02:49;30.55;;;17.27;;
58528;SDS011;44322;52.968;5.816;2022-08-19T06:05:16;23.75;;;15.52;;
58528;SDS011;44322;52.968;5.816;2022-08-19T06:07:42;27.10;;;16.63;;
58528;SDS011;44322;52.968;5.816;2022-08-19T06:10:09;28.85;;;17.02;;
58528;SDS011;44322;52.968;5.816;2022-08-19T06:12:36;24.90;;;16.27;;
58528;SDS011;44322;52.968;5.816;2022-08-19T06:15:06;26.88;;;17.35;;
58528;SDS011;44322;52.968;5.816;2022-08-19T06:17:34;26.40;;;16.90;;
58528;SDS011;44322;52.968;5.816;2022-08-19T06:20:07;28.65;;;17.15;;
58528;SDS011;44322;52.968;5.816;2022-08-19T06:22:43;26.50;;;17.58;;
58528;SDS011;44322;52.968;5.816;2022-08-19T06:25:10;24.52;;;17.05;;
58528;SDS011;44322;52.968;5.816;2022-08-19T06:27:38;24.08;;;16.50;;
58528;SDS011;44322;52.968;5.816;2022-08-19T06:30:04;26.58;;;16.80;;
58528;SDS011;44322;52.968;5.816;2022-08-19T06:32:30;26.65;;;17.00;;
58528;SDS011;44322;52.968;5.816;2022-08-19T06:34:56;23.95;;;16.17;;
58528;SDS011;44322;52.968;5.816;2022-08-19T06:37:22;25.98;;;18.20;;
58528;SDS011;44322;52.968;5.816;2022-08-19T06:39:48;27.27;;;17.90;;
58528;SDS011;44322;52.968;5.816;2022-08-19T06:42:15;23.80;;;17.42;;
58528;SDS011;44322;52.968;5.816;2022-08-19T06:44:45;25.75;;;17.80;;
58528;SDS011;44322;52.968;5.816;2022-08-19T06:47:14;26.80;;;18.08;;
58528;SDS011;44322;52.968;5.816;2022-08-19T06:49:42;23.92;;;16.80;;
58528;SDS011;44322;52.968;5.816;2022-08-19T06:52:08;26.05;;;17.35;;
58528;SDS011;44322;52.968;5.816;2022-08-19T06:54:37;25.67;;;17.45;;
58528;SDS011;44322;52.968;5.816;2022-08-19T06:57:04;26.05;;;17.80;;
58528;SDS011;44322;52.968;5.816;2022-08-19T06:59:32;26.70;;;17.77;;
58528;SDS011;44322;52.968;5.816;2022-08-19T07:01:59;25.90;;;17.80;;
58528;SDS011;44322;52.968;5.816;2022-08-19T07:04:30;25.73;;;17.50;;
58528;SDS011;44322;52.968;5.816;2022-08-19T07:07:02;22.98;;;16.52;;
58528;SDS011;44322;52.968;5.816;2022-08-19T07:09:34;27.00;;;18.33;;
58528;SDS011;44322;52.968;5.816;2022-08-19T07:12:05;27.88;;;18.70;;
58528;SDS011;44322;52.968;5.816;2022-08-19T07:14:33;31.00;;;20.02;;
58528;SDS011;44322;52.968;5.816;2022-08-19T07:17:03;26.42;;;17.73;;
58528;SDS011;44322;52.968;5.816;2022-08-19T07:19:31;27.20;;;19.00;;
58528;SDS011;44322;52.968;5.816;2022-08-19T07:21:57;28.85;;;19.70;;
58528;SDS011;44322;52.968;5.816;2022-08-19T07:24:47;31.58;;;20.00;;
58528;SDS011;44322;52.968;5.816;2022-08-19T07:27:13;29.92;;;20.38;;
58528;SDS011;44322;52.968;5.816;2022-08-19T07:29:39;30.45;;;20.38;;
58528;SDS011;44322;52.968;5.816;2022-08-19T07:32:05;35.00;;;23.00;;
58528;SDS011;44322;52.968;5.816;2022-08-19T07:34:32;39.63;;;24.42;;
58528;SDS011;44322;52.968;5.816;2022-08-19T07:37:02;37.65;;;23.60;;
58528;SDS011;44322;52.968;5.816;2022-08-19T07:41:57;36.72;;;23.42;;
58528;SDS011;44322;52.968;5.816;2022-08-19T07:46:52;40.17;;;25.40;;
58528;SDS011;44322;52.968;5.816;2022-08-19T07:49:20;41.88;;;27.30;;
58528;SDS011;44322;52.968;5.816;2022-08-19T07:51:52;42.63;;;28.02;;
58528;SDS011;44322;52.968;5.816;2022-08-19T07:54:21;40.35;;;26.02;;
58528;SDS011;44322;52.968;5.816;2022-08-19T07:56:48;44.38;;;29.25;;
58528;SDS011;44322;52.968;5.816;2022-08-19T08:01:42;39.73;;;28.20;;
58528;SDS011;44322;52.968;5.816;2022-08-19T08:04:09;37.45;;;27.23;;
58528;SDS011;44322;52.968;5.816;2022-08-19T08:06:54;42.25;;;27.63;;
58528;SDS011;44322;52.968;5.816;2022-08-19T08:09:40;37.63;;;25.58;;
58528;SDS011;44322;52.968;5.816;2022-08-19T08:12:08;41.67;;;27.27;;
58528;SDS011;44322;52.968;5.816;2022-08-19T08:14:42;38.13;;;26.55;;
58528;SDS011;44322;52.968;5.816;2022-08-19T08:17:14;38.45;;;26.83;;
58528;SDS011;44322;52.968;5.816;2022-08-19T08:19:42;37.80;;;26.52;;
58528;SDS011;44322;52.968;5.816;2022-08-19T08:22:10;34.33;;;25.10;;
58528;SDS011;44322;52.968;5.816;2022-08-19T08:25:07;34.85;;;23.73;;
58528;SDS011;44322;52.968;5.816;2022-08-19T08:27:43;33.35;;;25.20;;
58528;SDS011;44322;52.968;5.816;2022-08-19T08:30:16;37.55;;;25.95;;
58528;SDS011;44322;52.968;5.816;2022-08-19T08:32:47;34.55;;;23.42;;
58528;SDS011;44322;52.968;5.816;2022-08-19T08:35:15;27.13;;;19.93;;
58528;SDS011;44322;52.968;5.816;2022-08-19T08:37:43;26.88;;;18.95;;
58528;SDS011;44322;52.968;5.816;2022-08-19T08:40:18;26.65;;;20.15;;
58528;SDS011;44322;52.968;5.816;2022-08-19T08:42:54;22.92;;;18.05;;
58528;SDS011;44322;52.968;5.816;2022-08-19T08:45:30;25.75;;;18.35;;
58528;SDS011;44322;52.968;5.816;2022-08-19T08:53:07;22.08;;;16.40;;
58528;SDS011;44322;52.968;5.816;2022-08-19T08:55:35;23.77;;;16.58;;
58528;SDS011;44322;52.968;5.816;2022-08-19T08:58:45;25.42;;;18.35;;
58528;SDS011;44322;52.968;5.816;2022-08-19T09:01:17;30.02;;;20.00;;
58528;SDS011;44322;52.968;5.816;2022-08-19T09:03:44;24.00;;;17.35;;
58528;SDS011;44322;52.968;5.816;2022-08-19T09:06:12;24.92;;;18.25;;
58528;SDS011;44322;52.968;5.816;2022-08-19T09:08:59;24.05;;;18.38;;
58528;SDS011;44322;52.968;5.816;2022-08-19T09:14:37;26.65;;;19.52;;
58528;SDS011;44322;52.968;5.816;2022-08-19T09:17:24;27.98;;;19.05;;
58528;SDS011;44322;52.968;5.816;2022-08-19T09:19:57;23.27;;;17.77;;
58528;SDS011;44322;52.968;5.816;2022-08-19T09:22:32;25.95;;;17.90;;
58528;SDS011;44322;52.968;5.816;2022-08-19T09:24:58;28.55;;;19.98;;
58528;SDS011;44322;52.968;5.816;2022-08-19T09:27:24;26.67;;;17.27;;
58528;SDS011;44322;52.968;5.816;2022-08-19T09:29:52;25.67;;;17.42;;
58528;SDS011;44322;52.968;5.816;2022-08-19T09:32:19;24.42;;;17.38;;
58528;SDS011;44322;52.968;5.816;2022-08-19T09:34:46;27.77;;;17.83;;
58528;SDS011;44322;52.968;5.816;2022-08-19T09:37:11;21.45;;;16.08;;
58528;SDS011;44322;52.968;5.816;2022-08-19T09:39:38;24.60;;;17.15;;
58528;SDS011;44322;52.968;5.816;2022-08-19T09:42:06;27.35;;;16.80;;
58528;SDS011;44322;52.968;5.816;2022-08-19T09:44:37;24.25;;;17.63;;
58528;SDS011;44322;52.968;5.816;2022-08-19T09:47:04;27.92;;;17.83;;
58528;SDS011;44322;52.968;5.816;2022-08-19T09:49:33;25.10;;;17.70;;
58528;SDS011;44322;52.968;5.816;2022-08-19T09:51:59;24.73;;;16.20;;
58528;SDS011;44322;52.968;5.816;2022-08-19T09:54:25;23.40;;;15.60;;
58528;SDS011;44322;52.968;5.816;2022-08-19T09:56:52;24.23;;;16.17;;
58528;SDS011;44322;52.968;5.816;2022-08-19T09:59:19;20.60;;;15.27;;
58528;SDS011;44322;52.968;5.816;2022-08-19T10:01:45;24.08;;;16.13;;
58528;SDS011;44322;52.968;5.816;2022-08-19T10:04:11;27.55;;;20.00;;
58528;SDS011;44322;52.968;5.816;2022-08-19T10:06:38;25.75;;;20.38;;
58528;SDS011;44322;52.968;5.816;2022-08-19T10:09:05;25.83;;;18.33;;
58528;SDS011;44322;52.968;5.816;2022-08-19T10:11:33;24.13;;;17.42;;
58528;SDS011;44322;52.968;5.816;2022-08-19T10:14:00;25.23;;;17.88;;
58528;SDS011;44322;52.968;5.816;2022-08-19T10:16:27;30.95;;;18.67;;
58528;SDS011;44322;52.968;5.816;2022-08-19T10:18:53;23.48;;;16.60;;
58528;SDS011;44322;52.968;5.816;2022-08-19T10:21:24;23.50;;;17.35;;
58528;SDS011;44322;52.968;5.816;2022-08-19T10:23:53;24.95;;;17.73;;
58528;SDS011;44322;52.968;5.816;2022-08-19T10:26:22;25.95;;;18.92;;
58528;SDS011;44322;52.968;5.816;2022-08-19T10:28:53;30.52;;;20.13;;
58528;SDS011;44322;52.968;5.816;2022-08-19T10:31:24;26.52;;;19.80;;
58528;SDS011;44322;52.968;5.816;2022-08-19T10:33:52;28.73;;;20.85;;
58528;SDS011;44322;52.968;5.816;2022-08-19T10:36:23;28.00;;;19.52;;
58528;SDS011;44322;52.968;5.816;2022-08-19T10:38:51;28.48;;;18.25;;
58528;SDS011;44322;52.968;5.816;2022-08-19T10:41:20;27.23;;;18.85;;
58528;SDS011;44322;52.968;5.816;2022-08-19T10:43:52;30.33;;;20.27;;
58528;SDS011;44322;52.968;5.816;2022-08-19T10:46:20;27.00;;;18.05;;
58528;SDS011;44322;52.968;5.816;2022-08-19T10:48:48;29.75;;;20.55;;
58528;SDS011;44322;52.968;5.816;2022-08-19T10:51:15;24.85;;;18.77;;
58528;SDS011;44322;52.968;5.816;2022-08-19T10:54:01;32.42;;;21.88;;
58528;SDS011;44322;52.968;5.816;2022-08-19T10:56:28;25.20;;;19.27;;
58528;SDS011;44322;52.968;5.816;2022-08-19T10:59:13;34.08;;;22.65;;
58528;SDS011;44322;52.968;5.816;2022-08-19T11:01:39;30.63;;;22.38;;
58528;SDS011;44322;52.968;5.816;2022-08-19T11:04:07;33.63;;;22.40;;
58528;SDS011;44322;52.968;5.816;2022-08-19T11:06:41;26.85;;;20.67;;
58528;SDS011;44322;52.968;5.816;2022-08-19T11:09:08;29.52;;;21.13;;
58528;SDS011;44322;52.968;5.816;2022-08-19T11:11:36;32.35;;;21.73;;
58528;SDS011;44322;52.968;5.816;2022-08-19T11:14:12;25.70;;;18.90;;
58528;SDS011;44322;52.968;5.816;2022-08-19T11:16:41;29.00;;;20.63;;
58528;SDS011;44322;52.968;5.816;2022-08-19T11:19:09;28.98;;;21.95;;
58528;SDS011;44322;52.968;5.816;2022-08-19T11:21:38;28.65;;;20.45;;
58528;SDS011;44322;52.968;5.816;2022-08-19T11:24:10;28.50;;;21.00;;
58528;SDS011;44322;52.968;5.816;2022-08-19T11:26:38;30.60;;;21.05;;
58528;SDS011;44322;52.968;5.816;2022-08-19T11:29:05;29.33;;;20.52;;
58528;SDS011;44322;52.968;5.816;2022-08-19T11:31:37;28.60;;;19.75;;
58528;SDS011;44322;52.968;5.816;2022-08-19T11:34:06;29.00;;;21.55;;
58528;SDS011;44322;52.968;5.816;2022-08-19T11:36:34;28.42;;;20.05;;
58528;SDS011;44322;52.968;5.816;2022-08-19T11:39:04;28.80;;;21.30;;
58528;SDS011;44322;52.968;5.816;2022-08-19T11:41:31;25.13;;;19.00;;
58528;SDS011;44322;52.968;5.816;2022-08-19T11:43:57;26.50;;;17.88;;
58528;SDS011;44322;52.968;5.816;2022-08-19T11:46:24;26.80;;;19.25;;
58528;SDS011;44322;52.968;5.816;2022-08-19T11:51:19;24.75;;;19.10;;
58528;SDS011;44322;52.968;5.816;2022-08-19T11:53:47;25.48;;;17.45;;
58528;SDS011;44322;52.968;5.816;2022-08-19T11:56:13;27.13;;;20.02;;
58528;SDS011;44322;52.968;5.816;2022-08-19T11:58:39;28.48;;;18.75;;
58528;SDS011;44322;52.968;5.816;2022-08-19T12:01:09;30.60;;;21.92;;
58528;SDS011;44322;52.968;5.816;2022-08-19T12:03:42;29.73;;;20.80;;
58528;SDS011;44322;52.968;5.816;2022-08-19T12:06:14;24.90;;;18.60;;
58528;SDS011;44322;52.968;5.816;2022-08-19T12:08:42;28.25;;;21.42;;
58528;SDS011;44322;52.968;5.816;2022-08-19T12:11:10;26.00;;;20.80;;
58528;SDS011;44322;52.968;5.816;2022-08-19T12:13:37;25.33;;;17.75;;
58528;SDS011;44322;52.968;5.816;2022-08-19T12:16:11;26.13;;;17.38;;
58528;SDS011;44322;52.968;5.816;2022-08-19T12:18:42;26.27;;;18.55;;
58528;SDS011;44322;52.968;5.816;2022-08-19T12:21:11;27.45;;;18.77;;
58528;SDS011;44322;52.968;5.816;2022-08-19T12:23:48;27.48;;;19.23;;
58528;SDS011;44322;52.968;5.816;2022-08-19T12:26:17;30.05;;;19.25;;
58528;SDS011;44322;52.968;5.816;2022-08-19T12:28:43;27.40;;;20.05;;
58528;SDS011;44322;52.968;5.816;2022-08-19T12:31:09;26.97;;;18.73;;
58528;SDS011;44322;52.968;5.816;2022-08-19T12:33:38;27.17;;;20.25;;
58528;SDS011;44322;52.968;5.816;2022-08-19T12:38:32;27.80;;;18.80;;
58528;SDS011;44322;52.968;5.816;2022-08-19T12:40:59;30.27;;;20.42;;
58528;SDS011;44322;52.968;5.816;2022-08-19T12:43:28;29.33;;;19.40;;
58528;SDS011;44322;52.968;5.816;2022-08-19T12:45:55;29.05;;;20.85;;
58528;SDS011;44322;52.968;5.816;2022-08-19T12:48:21;32.95;;;21.63;;
58528;SDS011;44322;52.968;5.816;2022-08-19T12:50:47;26.30;;;17.90;;
58528;SDS011;44322;52.968;5.816;2022-08-19T12:53:13;22.67;;;15.18;;
58528;SDS011;44322;52.968;5.816;2022-08-19T12:55:40;22.70;;;14.90;;
58528;SDS011;44322;52.968;5.816;2022-08-19T12:58:07;18.27;;;10.35;;
58528;SDS011;44322;52.968;5.816;2022-08-19T13:00:34;9.45;;;6.35;;
58528;SDS011;44322;52.968;5.816;2022-08-19T13:03:00;20.10;;;8.00;;
58528;SDS011;44322;52.968;5.816;2022-08-19T13:05:28;12.02;;;6.43;;
58528;SDS011;44322;52.968;5.816;2022-08-19T13:07:58;11.80;;;6.50;;
58528;SDS011;44322;52.968;5.816;2022-08-19T13:10:34;10.57;;;6.18;;
58528;SDS011;44322;52.968;5.816;2022-08-19T13:13:02;9.27;;;7.18;;
58528;SDS011;44322;52.968;5.816;2022-08-19T13:15:32;10.93;;;7.97;;
58528;SDS011;44322;52.968;5.816;2022-08-19T13:18:00;11.48;;;8.93;;
58528;SDS011;44322;52.968;5.816;2022-08-19T13:20:26;16.27;;;10.50;;
58528;SDS011;44322;52.968;5.816;2022-08-19T13:22:53;12.02;;;9.70;;
58528;SDS011;44322;52.968;5.816;2022-08-19T13:25:19;15.48;;;11.30;;
58528;SDS011;44322;52.968;5.816;2022-08-19T13:27:47;15.38;;;11.90;;
58528;SDS011;44322;52.968;5.816;2022-08-19T13:30:15;16.77;;;12.73;;
58528;SDS011;44322;52.968;5.816;2022-08-19T13:33:00;23.23;;;15.63;;
58528;SDS011;44322;52.968;5.816;2022-08-19T13:38:11;25.63;;;17.23;;
58528;SDS011;44322;52.968;5.816;2022-08-19T13:40:39;25.55;;;19.13;;
58528;SDS011;44322;52.968;5.816;2022-08-19T13:43:05;30.10;;;19.45;;
58528;SDS011;44322;52.968;5.816;2022-08-19T13:45:32;30.50;;;20.42;;
58528;SDS011;44322;52.968;5.816;2022-08-19T13:47:59;30.23;;;20.42;;
58528;SDS011;44322;52.968;5.816;2022-08-19T13:50:29;27.98;;;20.50;;
58528;SDS011;44322;52.968;5.816;2022-08-19T13:52:56;34.83;;;21.48;;
58528;SDS011;44322;52.968;5.816;2022-08-19T13:55:23;32.97;;;21.42;;
58528;SDS011;44322;52.968;5.816;2022-08-19T13:57:50;29.35;;;20.58;;
58528;SDS011;44322;52.968;5.816;2022-08-19T14:00:18;31.45;;;22.35;;
58528;SDS011;44322;52.968;5.816;2022-08-19T14:02:46;32.97;;;23.10;;
58528;SDS011;44322;52.968;5.816;2022-08-19T14:05:26;33.80;;;22.80;;
58528;SDS011;44322;52.968;5.816;2022-08-19T14:07:54;32.35;;;22.73;;
58528;SDS011;44322;52.968;5.816;2022-08-19T14:10:20;29.02;;;20.70;;
58528;SDS011;44322;52.968;5.816;2022-08-19T14:12:48;27.52;;;21.10;;
58528;SDS011;44322;52.968;5.816;2022-08-19T14:15:15;26.83;;;19.05;;
58528;SDS011;44322;52.968;5.816;2022-08-19T14:17:42;28.45;;;19.80;;
58528;SDS011;44322;52.968;5.816;2022-08-19T14:20:09;26.58;;;18.90;;
58528;SDS011;44322;52.968;5.816;2022-08-19T14:22:37;28.80;;;19.85;;
58528;SDS011;44322;52.968;5.816;2022-08-19T14:25:05;28.00;;;18.33;;
58528;SDS011;44322;52.968;5.816;2022-08-19T14:27:33;26.42;;;18.75;;
58528;SDS011;44322;52.968;5.816;2022-08-19T14:30:01;27.02;;;17.92;;
58528;SDS011;44322;52.968;5.816;2022-08-19T14:32:28;27.27;;;18.23;;
58528;SDS011;44322;52.968;5.816;2022-08-19T14:34:54;24.05;;;17.15;;
58528;SDS011;44322;52.968;5.816;2022-08-19T14:37:19;24.42;;;16.38;;
58528;SDS011;44322;52.968;5.816;2022-08-19T14:39:47;21.65;;;15.05;;
58528;SDS011;44322;52.968;5.816;2022-08-19T14:42:13;19.67;;;15.40;;
58528;SDS011;44322;52.968;5.816;2022-08-19T14:44:40;20.23;;;15.17;;
58528;SDS011;44322;52.968;5.816;2022-08-19T14:47:07;22.73;;;14.70;;
58528;SDS011;44322;52.968;5.816;2022-08-19T14:49:33;19.90;;;16.25;;
58528;SDS011;44322;52.968;5.816;2022-08-19T14:51:59;20.00;;;15.77;;
58528;SDS011;44322;52.968;5.816;2022-08-19T14:54:26;17.40;;;12.15;;
58528;SDS011;44322;52.968;5.816;2022-08-19T14:56:52;17.20;;;11.80;;
58528;SDS011;44322;52.968;5.816;2022-08-19T14:59:17;15.95;;;10.95;;
58528;SDS011;44322;52.968;5.816;2022-08-19T15:01:43;12.00;;;9.40;;
58528;SDS011;44322;52.968;5.816;2022-08-19T15:04:09;13.90;;;9.80;;
58528;SDS011;44322;52.968;5.816;2022-08-19T15:06:35;9.95;;;8.65;;
58528;SDS011;44322;52.968;5.816;2022-08-19T15:09:02;11.02;;;7.68;;
58528;SDS011;44322;52.968;5.816;2022-08-19T15:11:29;9.32;;;6.55;;